sensor_id;sensor_type;location;lat;lon;timestamp;pressure;altitude;pressure_sealevel;temperature;humidity
59951;BME280;45812;53.540;9.774;2023-07-13T00:02:24;101237.59;;;15.80;100.00
59951;BME280;45812;53.540;9.774;2023-07-13T00:04:51;101237.16;;;15.76;100.00
59951;BME280;45812;53.540;9.774;2023-07-13T00:07:17;101231.31;;;15.72;100.00
59951;BME280;45812;53.540;9.774;2023-07-13T00:09:47;101229.03;;;15.69;100.00
59951;BME280;45812;53.540;9.774;2023-07-13T00:12:31;101229.41;;;15.66;100.00
59951;BME280;45812;53.540;9.774;2023-07-13T00:14:58;101241.34;;;15.64;100.00
59951;BME280;45812;53.540;9.774;2023-07-13T00:17:24;101238.16;;;15.60;100.00
59951;BME280;45812;53.540;9.774;2023-07-13T00:19:49;101233.00;;;15.59;100.00
59951;BME280;45812;53.540;9.774;2023-07-13T00:22:14;101234.16;;;15.56;100.00
59951;BME280;45812;53.540;9.774;2023-07-13T00:24:40;101233.72;;;15.53;100.00
59951;BME280;45812;53.540;9.774;2023-07-13T00:27:09;101230.56;;;15.49;100.00
59951;BME280;45812;53.540;9.774;2023-07-13T00:29:36;101229.28;;;15.45;100.00
59951;BME280;45812;53.540;9.774;2023-07-13T00:32:03;101229.63;;;15.42;100.00
59951;BME280;45812;53.540;9.774;2023-07-13T00:34:28;101240.34;;;15.42;100.00
59951;BME280;45812;53.540;9.774;2023-07-13T00:36:54;101238.88;;;15.39;100.00
59951;BME280;45812;53.540;9.774;2023-07-13T00:39:19;101243.59;;;15.37;100.00
59951;BME280;45812;53.540;9.774;2023-07-13T00:41:46;101246.63;;;15.34;100.00
59951;BME280;45812;53.540;9.774;2023-07-13T00:44:15;101242.47;;;15.32;100.00
59951;BME280;45812;53.540;9.774;2023-07-13T00:46:41;101246.34;;;15.29;100.00
59951;BME280;45812;53.540;9.774;2023-07-13T00:49:10;101252.09;;;15.26;100.00
59951;BME280;45812;53.540;9.774;2023-07-13T00:51:44;101246.91;;;15.25;100.00
59951;BME280;45812;53.540;9.774;2023-07-13T00:54:12;101248.09;;;15.22;100.00
59951;BME280;45812;53.540;9.774;2023-07-13T00:56:39;101250.59;;;15.24;100.00
59951;BME280;45812;53.540;9.774;2023-07-13T00:59:06;101251.59;;;15.23;100.00
59951;BME280;45812;53.540;9.774;2023-07-13T01:01:33;101252.16;;;15.18;100.00
59951;BME280;45812;53.540;9.774;2023-07-13T01:03:58;101249.66;;;15.17;100.00
59951;BME280;45812;53.540;9.774;2023-07-13T01:06:24;101244.66;;;15.13;100.00
59951;BME280;45812;53.540;9.774;2023-07-13T01:08:49;101253.72;;;15.12;100.00
59951;BME280;45812;53.540;9.774;2023-07-13T01:11:19;101255.75;;;15.10;100.00
59951;BME280;45812;53.540;9.774;2023-07-13T01:13:45;101254.28;;;15.08;100.00
59951;BME280;45812;53.540;9.774;2023-07-13T01:16:22;101251.09;;;15.04;100.00
59951;BME280;45812;53.540;9.774;2023-07-13T01:18:49;101241.56;;;15.02;100.00
59951;BME280;45812;53.540;9.774;2023-07-13T01:21:14;101236.94;;;14.96;100.00
59951;BME280;45812;53.540;9.774;2023-07-13T01:23:39;101240.81;;;14.93;100.00
59951;BME280;45812;53.540;9.774;2023-07-13T01:26:05;101242.53;;;14.86;100.00
59951;BME280;45812;53.540;9.774;2023-07-13T01:28:30;101249.09;;;14.83;100.00
59951;BME280;45812;53.540;9.774;2023-07-13T01:30:58;101244.75;;;14.82;100.00
59951;BME280;45812;53.540;9.774;2023-07-13T01:33:24;101247.59;;;14.81;100.00
59951;BME280;45812;53.540;9.774;2023-07-13T01:35:50;101239.94;;;14.78;100.00
59951;BME280;45812;53.540;9.774;2023-07-13T01:38:18;101232.06;;;14.76;100.00
59951;BME280;45812;53.540;9.774;2023-07-13T01:40:43;101233.28;;;14.74;100.00
59951;BME280;45812;53.540;9.774;2023-07-13T01:43:09;101240.47;;;14.73;100.00
59951;BME280;45812;53.540;9.774;2023-07-13T01:45:34;101234.47;;;14.71;100.00
59951;BME280;45812;53.540;9.774;2023-07-13T01:48:00;101229.44;;;14.68;100.00
59951;BME280;45812;53.540;9.774;2023-07-13T01:50:26;101237.66;;;14.67;100.00
59951;BME280;45812;53.540;9.774;2023-07-13T01:52:51;101244.22;;;14.64;100.00
59951;BME280;45812;53.540;9.774;2023-07-13T01:55:16;101243.56;;;14.62;100.00
59951;BME280;45812;53.540;9.774;2023-07-13T01:57:42;101247.44;;;14.60;100.00
59951;BME280;45812;53.540;9.774;2023-07-13T02:00:09;101237.06;;;14.57;100.00
59951;BME280;45812;53.540;9.774;2023-07-13T02:02:35;101240.78;;;14.56;100.00
59951;BME280;45812;53.540;9.774;2023-07-13T02:05:00;101245.47;;;14.53;100.00
59951;BME280;45812;53.540;9.774;2023-07-13T02:07:25;101242.28;;;14.50;100.00
59951;BME280;45812;53.540;9.774;2023-07-13T02:09:51;101241.63;;;14.48;100.00
59951;BME280;45812;53.540;9.774;2023-07-13T02:12:16;101252.53;;;14.46;100.00
59951;BME280;45812;53.540;9.774;2023-07-13T02:14:41;101250.88;;;14.45;100.00
59951;BME280;45812;53.540;9.774;2023-07-13T02:17:09;101250.22;;;14.43;100.00
59951;BME280;45812;53.540;9.774;2023-07-13T02:19:34;101246.84;;;14.41;100.00
59951;BME280;45812;53.540;9.774;2023-07-13T02:21:59;101250.53;;;14.40;100.00
59951;BME280;45812;53.540;9.774;2023-07-13T02:24:25;101254.22;;;14.39;100.00
59951;BME280;45812;53.540;9.774;2023-07-13T02:26:50;101250.91;;;14.37;100.00
59951;BME280;45812;53.540;9.774;2023-07-13T02:29:15;101259.13;;;14.36;100.00
59951;BME280;45812;53.540;9.774;2023-07-13T02:31:40;101252.28;;;14.33;100.00
59951;BME280;45812;53.540;9.774;2023-07-13T02:34:06;101256.78;;;14.33;100.00
59951;BME280;45812;53.540;9.774;2023-07-13T02:36:31;101259.28;;;14.34;100.00
59951;BME280;45812;53.540;9.774;2023-07-13T02:39:02;101268.34;;;14.33;100.00
59951;BME280;45812;53.540;9.774;2023-07-13T02:41:28;101265.66;;;14.33;100.00
59951;BME280;45812;53.540;9.774;2023-07-13T02:43:54;101257.81;;;14.32;100.00
59951;BME280;45812;53.540;9.774;2023-07-13T02:46:19;101257.94;;;14.30;100.00
59951;BME280;45812;53.540;9.774;2023-07-13T02:48:45;101256.28;;;14.29;100.00
59951;BME280;45812;53.540;9.774;2023-07-13T02:51:10;101249.63;;;14.25;100.00
59951;BME280;45812;53.540;9.774;2023-07-13T02:53:35;101249.78;;;14.23;100.00
59951;BME280;45812;53.540;9.774;2023-07-13T02:56:01;101256.81;;;14.24;100.00
59951;BME280;45812;53.540;9.774;2023-07-13T02:58:26;101259.03;;;14.21;100.00
59951;BME280;45812;53.540;9.774;2023-07-13T03:00:52;101253.84;;;14.19;100.00
59951;BME280;45812;53.540;9.774;2023-07-13T03:03:17;101248.84;;;14.16;100.00
59951;BME280;45812;53.540;9.774;2023-07-13T03:05:44;101256.88;;;14.16;100.00
59951;BME280;45812;53.540;9.774;2023-07-13T03:08:11;101249.03;;;14.15;100.00
59951;BME280;45812;53.540;9.774;2023-07-13T03:10:36;101244.00;;;14.12;100.00
59951;BME280;45812;53.540;9.774;2023-07-13T03:13:02;101235.31;;;14.10;100.00
59951;BME280;45812;53.540;9.774;2023-07-13T03:15:27;101240.00;;;14.08;100.00
59951;BME280;45812;53.540;9.774;2023-07-13T03:17:53;101247.19;;;14.07;100.00
59951;BME280;45812;53.540;9.774;2023-07-13T03:20:18;101240.34;;;14.05;100.00
59951;BME280;45812;53.540;9.774;2023-07-13T03:22:44;101245.88;;;14.03;100.00
59951;BME280;45812;53.540;9.774;2023-07-13T03:25:09;101250.41;;;14.03;100.00
59951;BME280;45812;53.540;9.774;2023-07-13T03:27:35;101255.09;;;14.01;100.00
59951;BME280;45812;53.540;9.774;2023-07-13T03:30:01;101252.94;;;13.96;100.00
59951;BME280;45812;53.540;9.774;2023-07-13T03:32:26;101250.28;;;13.96;100.00
59951;BME280;45812;53.540;9.774;2023-07-13T03:34:51;101248.75;;;13.93;100.00
59951;BME280;45812;53.540;9.774;2023-07-13T03:37:16;101255.28;;;13.91;100.00
59951;BME280;45812;53.540;9.774;2023-07-13T03:39:42;101264.81;;;13.93;100.00
59951;BME280;45812;53.540;9.774;2023-07-13T03:42:07;101254.47;;;13.90;100.00
59951;BME280;45812;53.540;9.774;2023-07-13T03:44:33;101251.97;;;13.89;100.00
59951;BME280;45812;53.540;9.774;2023-07-13T03:46:58;101258.50;;;13.86;100.00
59951;BME280;45812;53.540;9.774;2023-07-13T03:49:23;101257.84;;;13.84;100.00
59951;BME280;45812;53.540;9.774;2023-07-13T03:51:48;101254.50;;;13.82;100.00
59951;BME280;45812;53.540;9.774;2023-07-13T03:54:14;101252.84;;;13.81;100.00
59951;BME280;45812;53.540;9.774;2023-07-13T03:56:39;101257.19;;;13.82;100.00
59951;BME280;45812;53.540;9.774;2023-07-13T03:59:04;101257.53;;;13.79;100.00
59951;BME280;45812;53.540;9.774;2023-07-13T04:01:30;101259.19;;;13.80;100.00
59951;BME280;45812;53.540;9.774;2023-07-13T04:03:55;101259.19;;;13.80;100.00
59951;BME280;45812;53.540;9.774;2023-07-13T04:06:23;101249.50;;;13.79;100.00
59951;BME280;45812;53.540;9.774;2023-07-13T04:08:51;101252.84;;;13.81;100.00
59951;BME280;45812;53.540;9.774;2023-07-13T04:11:18;101248.97;;;13.84;100.00
59951;BME280;45812;53.540;9.774;2023-07-13T04:13:44;101250.63;;;13.85;100.00
59951;BME280;45812;53.540;9.774;2023-07-13T04:16:09;101258.50;;;13.86;100.00
59951;BME280;45812;53.540;9.774;2023-07-13T04:18:35;101263.66;;;13.88;100.00
59951;BME280;45812;53.540;9.774;2023-07-13T04:21:00;101267.53;;;13.85;100.00
59951;BME280;45812;53.540;9.774;2023-07-13T04:23:25;101260.16;;;13.87;100.00
59951;BME280;45812;53.540;9.774;2023-07-13T04:25:52;101269.19;;;13.86;100.00
59951;BME280;45812;53.540;9.774;2023-07-13T04:28:22;101263.50;;;13.89;100.00
59951;BME280;45812;53.540;9.774;2023-07-13T04:30:48;101269.19;;;13.94;100.00
59951;BME280;45812;53.540;9.774;2023-07-13T04:33:14;101264.31;;;13.98;100.00
59951;BME280;45812;53.540;9.774;2023-07-13T04:35:39;101270.81;;;14.04;100.00
59951;BME280;45812;53.540;9.774;2023-07-13T04:38:05;101272.13;;;14.08;100.00
59951;BME280;45812;53.540;9.774;2023-07-13T04:40:30;101270.63;;;14.13;100.00
59951;BME280;45812;53.540;9.774;2023-07-13T04:42:56;101262.88;;;14.18;100.00
59951;BME280;45812;53.540;9.774;2023-07-13T04:45:22;101271.22;;;14.23;100.00
59951;BME280;45812;53.540;9.774;2023-07-13T04:47:49;101276.03;;;14.28;100.00
59951;BME280;45812;53.540;9.774;2023-07-13T04:50:14;101275.53;;;14.33;100.00
59951;BME280;45812;53.540;9.774;2023-07-13T04:52:46;101275.00;;;14.37;100.00
59951;BME280;45812;53.540;9.774;2023-07-13T04:55:11;101279.16;;;14.40;100.00
59951;BME280;45812;53.540;9.774;2023-07-13T04:57:37;101285.34;;;14.48;100.00
59951;BME280;45812;53.540;9.774;2023-07-13T05:00:03;101285.13;;;14.58;100.00
59951;BME280;45812;53.540;9.774;2023-07-13T05:02:31;101288.06;;;14.71;100.00
59951;BME280;45812;53.540;9.774;2023-07-13T05:04:57;101297.16;;;14.85;100.00
59951;BME280;45812;53.540;9.774;2023-07-13T05:07:23;101298.41;;;14.97;100.00
59951;BME280;45812;53.540;9.774;2023-07-13T05:09:48;101290.84;;;15.01;100.00
59951;BME280;45812;53.540;9.774;2023-07-13T05:12:13;101292.00;;;15.06;100.00
59951;BME280;45812;53.540;9.774;2023-07-13T05:14:38;101292.75;;;15.15;100.00
59951;BME280;45812;53.540;9.774;2023-07-13T05:17:04;101298.56;;;15.19;100.00
59951;BME280;45812;53.540;9.774;2023-07-13T05:19:30;101301.84;;;15.29;100.00
59951;BME280;45812;53.540;9.774;2023-07-13T05:21:55;101299.09;;;15.37;100.00
59951;BME280;45812;53.540;9.774;2023-07-13T05:24:20;101300.19;;;15.42;100.00
59951;BME280;45812;53.540;9.774;2023-07-13T05:26:45;101305.88;;;15.48;100.00
59951;BME280;45812;53.540;9.774;2023-07-13T05:29:11;101309.28;;;15.56;100.00
59951;BME280;45812;53.540;9.774;2023-07-13T05:31:36;101313.31;;;15.60;100.00
59951;BME280;45812;53.540;9.774;2023-07-13T05:34:01;101315.84;;;15.62;100.00
59951;BME280;45812;53.540;9.774;2023-07-13T05:36:27;101311.63;;;15.59;100.00
59951;BME280;45812;53.540;9.774;2023-07-13T05:38:52;101315.66;;;15.63;100.00
59951;BME280;45812;53.540;9.774;2023-07-13T05:41:17;101325.63;;;15.69;100.00
59951;BME280;45812;53.540;9.774;2023-07-13T05:43:42;101320.66;;;15.66;100.00
59951;BME280;45812;53.540;9.774;2023-07-13T05:46:08;101316.94;;;15.67;100.00
59951;BME280;45812;53.540;9.774;2023-07-13T05:48:33;101317.69;;;15.76;100.00
59951;BME280;45812;53.540;9.774;2023-07-13T05:50:58;101317.41;;;15.86;100.00
59951;BME280;45812;53.540;9.774;2023-07-13T05:53:23;101318.34;;;15.93;100.00
59951;BME280;45812;53.540;9.774;2023-07-13T05:55:49;101311.75;;;15.95;100.00
59951;BME280;45812;53.540;9.774;2023-07-13T05:58:18;101315.09;;;15.97;100.00
59951;BME280;45812;53.540;9.774;2023-07-13T06:00:43;101315.47;;;16.09;100.00
59951;BME280;45812;53.540;9.774;2023-07-13T06:03:09;101321.03;;;16.22;100.00
59951;BME280;45812;53.540;9.774;2023-07-13T06:05:35;101325.00;;;16.26;100.00
59951;BME280;45812;53.540;9.774;2023-07-13T06:08:02;101326.53;;;16.35;100.00
59951;BME280;45812;53.540;9.774;2023-07-13T06:10:27;101328.88;;;16.39;100.00
59951;BME280;45812;53.540;9.774;2023-07-13T06:12:52;101336.19;;;16.45;100.00
59951;BME280;45812;53.540;9.774;2023-07-13T06:15:17;101330.97;;;16.58;100.00
59951;BME280;45812;53.540;9.774;2023-07-13T06:17:43;101331.31;;;16.70;100.00
59951;BME280;45812;53.540;9.774;2023-07-13T06:20:09;101335.31;;;16.74;100.00
59951;BME280;45812;53.540;9.774;2023-07-13T06:22:34;101339.72;;;16.81;100.00
59951;BME280;45812;53.540;9.774;2023-07-13T06:24:59;101339.78;;;16.88;100.00
59951;BME280;45812;53.540;9.774;2023-07-13T06:27:25;101347.81;;;17.03;100.00
59951;BME280;45812;53.540;9.774;2023-07-13T06:29:50;101344.16;;;17.10;100.00
59951;BME280;45812;53.540;9.774;2023-07-13T06:32:15;101345.75;;;17.26;100.00
59951;BME280;45812;53.540;9.774;2023-07-13T06:34:41;101347.75;;;17.39;100.00
59951;BME280;45812;53.540;9.774;2023-07-13T06:37:06;101349.09;;;17.49;100.00
59951;BME280;45812;53.540;9.774;2023-07-13T06:39:32;101352.88;;;17.62;100.00
59951;BME280;45812;53.540;9.774;2023-07-13T06:41:57;101351.28;;;17.67;100.00
59951;BME280;45812;53.540;9.774;2023-07-13T06:44:22;101350.78;;;17.78;100.00
59951;BME280;45812;53.540;9.774;2023-07-13T06:46:48;101356.66;;;17.89;100.00
59951;BME280;45812;53.540;9.774;2023-07-13T06:49:13;101355.06;;;18.01;100.00
59951;BME280;45812;53.540;9.774;2023-07-13T06:51:38;101347.25;;;18.12;98.88
59951;BME280;45812;53.540;9.774;2023-07-13T06:54:04;101354.19;;;18.28;97.33
59951;BME280;45812;53.540;9.774;2023-07-13T06:56:29;101353.44;;;18.41;97.35
59951;BME280;45812;53.540;9.774;2023-07-13T06:58:54;101348.47;;;18.51;95.85
59951;BME280;45812;53.540;9.774;2023-07-13T07:01:19;101354.09;;;18.56;97.51
59951;BME280;45812;53.540;9.774;2023-07-13T07:03:45;101351.19;;;18.58;98.61
59951;BME280;45812;53.540;9.774;2023-07-13T07:06:16;101345.78;;;18.58;96.29
59951;BME280;45812;53.540;9.774;2023-07-13T07:08:42;101346.41;;;18.53;94.55
59951;BME280;45812;53.540;9.774;2023-07-13T07:11:11;101348.88;;;18.41;96.16
59951;BME280;45812;53.540;9.774;2023-07-13T07:13:37;101351.09;;;18.31;98.83
59951;BME280;45812;53.540;9.774;2023-07-13T07:16:03;101347.91;;;18.21;98.17
59951;BME280;45812;53.540;9.774;2023-07-13T07:18:28;101348.09;;;18.13;99.20
59951;BME280;45812;53.540;9.774;2023-07-13T07:20:53;101349.56;;;18.15;99.72
59951;BME280;45812;53.540;9.774;2023-07-13T07:23:18;101345.03;;;18.23;99.50
59951;BME280;45812;53.540;9.774;2023-07-13T07:25:44;101351.16;;;18.44;97.61
59951;BME280;45812;53.540;9.774;2023-07-13T07:28:09;101354.91;;;18.50;95.94
59951;BME280;45812;53.540;9.774;2023-07-13T07:30:34;101345.47;;;18.74;95.57
59951;BME280;45812;53.540;9.774;2023-07-13T07:33:00;101351.13;;;18.92;94.50
59951;BME280;45812;53.540;9.774;2023-07-13T07:35:26;101354.69;;;19.13;91.97
59951;BME280;45812;53.540;9.774;2023-07-13T07:37:51;101360.09;;;19.26;92.29
59951;BME280;45812;53.540;9.774;2023-07-13T07:40:18;101358.88;;;19.35;91.62
59951;BME280;45812;53.540;9.774;2023-07-13T07:42:43;101374.28;;;19.54;91.79
59951;BME280;45812;53.540;9.774;2023-07-13T07:45:08;101362.84;;;19.65;90.34
59951;BME280;45812;53.540;9.774;2023-07-13T07:47:36;101354.94;;;19.64;90.18
59951;BME280;45812;53.540;9.774;2023-07-13T07:50:01;101352.06;;;19.72;87.71
59951;BME280;45812;53.540;9.774;2023-07-13T07:52:26;101346.81;;;19.97;86.86
59951;BME280;45812;53.540;9.774;2023-07-13T07:54:52;101346.34;;;20.07;85.47
59951;BME280;45812;53.540;9.774;2023-07-13T07:57:17;101339.06;;;20.07;86.78
59951;BME280;45812;53.540;9.774;2023-07-13T07:59:42;101348.88;;;20.02;86.49
59951;BME280;45812;53.540;9.774;2023-07-13T08:02:09;101339.53;;;19.98;87.01
59951;BME280;45812;53.540;9.774;2023-07-13T08:04:35;101335.75;;;20.05;87.55
59951;BME280;45812;53.540;9.774;2023-07-13T08:07:00;101348.06;;;19.94;87.58
59951;BME280;45812;53.540;9.774;2023-07-13T08:09:28;101342.28;;;19.71;89.35
59951;BME280;45812;53.540;9.774;2023-07-13T08:11:53;101344.59;;;19.54;88.80
59951;BME280;45812;53.540;9.774;2023-07-13T08:14:19;101354.50;;;19.41;90.65
59951;BME280;45812;53.540;9.774;2023-07-13T08:16:45;101361.38;;;19.36;89.87
59951;BME280;45812;53.540;9.774;2023-07-13T08:19:10;101356.38;;;19.47;87.32
59951;BME280;45812;53.540;9.774;2023-07-13T08:21:36;101353.31;;;19.56;88.40
59951;BME280;45812;53.540;9.774;2023-07-13T08:24:02;101363.47;;;19.61;89.55
59951;BME280;45812;53.540;9.774;2023-07-13T08:26:27;101363.84;;;19.51;88.86
59951;BME280;45812;53.540;9.774;2023-07-13T08:28:52;101374.91;;;19.56;87.71
59951;BME280;45812;53.540;9.774;2023-07-13T08:31:18;101358.06;;;19.74;87.93
59951;BME280;45812;53.540;9.774;2023-07-13T08:33:43;101357.00;;;19.82;83.88
59951;BME280;45812;53.540;9.774;2023-07-13T08:36:08;101346.22;;;19.75;86.59
59951;BME280;45812;53.540;9.774;2023-07-13T08:38:33;101363.88;;;19.64;85.01
59951;BME280;45812;53.540;9.774;2023-07-13T08:40:59;101360.72;;;19.48;87.08
59951;BME280;45812;53.540;9.774;2023-07-13T08:43:37;101360.97;;;19.40;85.15
59951;BME280;45812;53.540;9.774;2023-07-13T08:46:13;101370.06;;;19.32;82.21
59951;BME280;45812;53.540;9.774;2023-07-13T08:48:46;101353.66;;;19.27;88.13
59951;BME280;45812;53.540;9.774;2023-07-13T08:54:26;101364.94;;;19.63;85.04
59951;BME280;45812;53.540;9.774;2023-07-13T08:56:53;101374.69;;;19.78;82.92
59951;BME280;45812;53.540;9.774;2023-07-13T08:59:21;101354.72;;;19.92;80.83
59951;BME280;45812;53.540;9.774;2023-07-13T09:02:17;101361.34;;;20.09;79.30
59951;BME280;45812;53.540;9.774;2023-07-13T09:05:04;101343.75;;;20.38;78.33
59951;BME280;45812;53.540;9.774;2023-07-13T09:07:55;101354.69;;;20.63;77.63
59951;BME280;45812;53.540;9.774;2023-07-13T09:10:32;101355.47;;;20.77;78.44
59951;BME280;45812;53.540;9.774;2023-07-13T09:15:34;101355.94;;;21.05;74.72
59951;BME280;45812;53.540;9.774;2023-07-13T09:18:08;101357.59;;;21.06;74.58
59951;BME280;45812;53.540;9.774;2023-07-13T09:20:39;101353.56;;;21.15;76.70
59951;BME280;45812;53.540;9.774;2023-07-13T09:23:12;101362.50;;;21.23;76.27
59951;BME280;45812;53.540;9.774;2023-07-13T09:25:40;101349.53;;;21.31;76.41
59951;BME280;45812;53.540;9.774;2023-07-13T09:28:18;101363.81;;;21.45;76.70
59951;BME280;45812;53.540;9.774;2023-07-13T09:33:10;101357.16;;;21.66;72.56
59951;BME280;45812;53.540;9.774;2023-07-13T09:35:35;101358.09;;;21.78;69.71
59951;BME280;45812;53.540;9.774;2023-07-13T09:38:21;101352.94;;;21.70;66.84
59951;BME280;45812;53.540;9.774;2023-07-13T09:43:28;101355.25;;;21.91;69.06
59951;BME280;45812;53.540;9.774;2023-07-13T09:45:54;101365.25;;;21.91;67.84
59951;BME280;45812;53.540;9.774;2023-07-13T09:48:20;101372.88;;;22.00;68.48
59951;BME280;45812;53.540;9.774;2023-07-13T09:50:45;101381.34;;;22.11;66.04
59951;BME280;45812;53.540;9.774;2023-07-13T09:53:16;101366.63;;;22.00;66.23
59951;BME280;45812;53.540;9.774;2023-07-13T09:55:44;101377.75;;;21.92;64.25
59951;BME280;45812;53.540;9.774;2023-07-13T09:58:18;101382.75;;;21.95;64.86
59951;BME280;45812;53.540;9.774;2023-07-13T10:00:55;101382.03;;;22.06;66.54
59951;BME280;45812;53.540;9.774;2023-07-13T10:03:29;101378.59;;;22.17;62.85
59951;BME280;45812;53.540;9.774;2023-07-13T10:06:09;101365.53;;;22.44;62.85
59951;BME280;45812;53.540;9.774;2023-07-13T10:08:35;101368.53;;;22.73;62.80
59951;BME280;45812;53.540;9.774;2023-07-13T10:11:23;101374.31;;;22.76;62.32
59951;BME280;45812;53.540;9.774;2023-07-13T10:16:21;101370.47;;;22.84;62.04
59951;BME280;45812;53.540;9.774;2023-07-13T10:18:56;101369.84;;;23.00;60.35
59951;BME280;45812;53.540;9.774;2023-07-13T10:21:27;101355.47;;;23.11;56.89
59951;BME280;45812;53.540;9.774;2023-07-13T10:23:56;101363.19;;;23.26;54.58
59951;BME280;45812;53.540;9.774;2023-07-13T10:26:29;101368.97;;;23.30;53.16
59951;BME280;45812;53.540;9.774;2023-07-13T10:28:57;101357.44;;;23.46;56.15
59951;BME280;45812;53.540;9.774;2023-07-13T10:31:24;101373.91;;;23.63;55.62
59951;BME280;45812;53.540;9.774;2023-07-13T10:33:50;101361.66;;;23.30;53.46
59951;BME280;45812;53.540;9.774;2023-07-13T10:36:29;101365.28;;;23.77;54.13
59951;BME280;45812;53.540;9.774;2023-07-13T10:38:57;101356.03;;;24.65;54.25
59951;BME280;45812;53.540;9.774;2023-07-13T10:41:25;101358.47;;;25.69;47.43
59951;BME280;45812;53.540;9.774;2023-07-13T10:43:54;101366.78;;;26.18;43.51
59951;BME280;45812;53.540;9.774;2023-07-13T10:46:22;101348.66;;;26.99;42.62
59951;BME280;45812;53.540;9.774;2023-07-13T10:48:52;101359.28;;;27.92;41.25
59951;BME280;45812;53.540;9.774;2023-07-13T10:51:19;101359.56;;;27.26;40.98
59951;BME280;45812;53.540;9.774;2023-07-13T10:54:12;101368.66;;;28.06;41.08
59951;BME280;45812;53.540;9.774;2023-07-13T10:56:40;101363.06;;;28.33;39.12
59951;BME280;45812;53.540;9.774;2023-07-13T10:59:11;101359.25;;;28.34;38.14
59951;BME280;45812;53.540;9.774;2023-07-13T11:01:53;101344.31;;;28.77;37.36
59951;BME280;45812;53.540;9.774;2023-07-13T11:04:19;101363.22;;;28.11;38.53
59951;BME280;45812;53.540;9.774;2023-07-13T11:06:48;101362.28;;;27.53;39.25
59951;BME280;45812;53.540;9.774;2023-07-13T11:11:56;101348.06;;;26.05;39.15
59951;BME280;45812;53.540;9.774;2023-07-13T11:14:36;101363.69;;;26.75;38.83
59951;BME280;45812;53.540;9.774;2023-07-13T11:17:33;101353.75;;;29.58;34.24
59951;BME280;45812;53.540;9.774;2023-07-13T11:22:46;101353.88;;;28.80;36.47
59951;BME280;45812;53.540;9.774;2023-07-13T11:30:40;101351.41;;;28.68;38.82
59951;BME280;45812;53.540;9.774;2023-07-13T11:33:20;101360.31;;;27.86;40.41
59951;BME280;45812;53.540;9.774;2023-07-13T11:36:06;101363.53;;;26.86;42.25
59951;BME280;45812;53.540;9.774;2023-07-13T11:38:43;101353.72;;;26.20;43.77
59951;BME280;45812;53.540;9.774;2023-07-13T11:41:43;101354.66;;;27.60;41.27
59951;BME280;45812;53.540;9.774;2023-07-13T11:44:16;101356.38;;;30.03;37.53
59951;BME280;45812;53.540;9.774;2023-07-13T11:46:46;101356.59;;;30.87;36.07
59951;BME280;45812;53.540;9.774;2023-07-13T11:49:15;101353.53;;;32.81;31.61
59951;BME280;45812;53.540;9.774;2023-07-13T11:51:41;101360.47;;;31.54;34.02
59951;BME280;45812;53.540;9.774;2023-07-13T11:54:23;101370.19;;;29.68;35.70
59951;BME280;45812;53.540;9.774;2023-07-13T11:56:49;101375.66;;;28.34;37.96
59951;BME280;45812;53.540;9.774;2023-07-13T11:59:15;101391.06;;;27.02;46.77
59951;BME280;45812;53.540;9.774;2023-07-13T12:01:44;101404.50;;;24.92;61.75
59951;BME280;45812;53.540;9.774;2023-07-13T12:04:22;101454.91;;;22.39;65.00
59951;BME280;45812;53.540;9.774;2023-07-13T12:06:58;101466.50;;;20.37;76.80
59951;BME280;45812;53.540;9.774;2023-07-13T12:09:28;101485.47;;;19.10;86.49
59951;BME280;45812;53.540;9.774;2023-07-13T12:11:53;101483.78;;;18.33;90.19
59951;BME280;45812;53.540;9.774;2023-07-13T12:14:19;101476.38;;;17.86;96.22
59951;BME280;45812;53.540;9.774;2023-07-13T12:16:47;101471.25;;;17.70;100.00
59951;BME280;45812;53.540;9.774;2023-07-13T12:19:21;101471.31;;;17.76;100.00
59951;BME280;45812;53.540;9.774;2023-07-13T12:21:47;101475.16;;;17.89;100.00
59951;BME280;45812;53.540;9.774;2023-07-13T12:24:18;101470.09;;;18.35;100.00
59951;BME280;45812;53.540;9.774;2023-07-13T12:26:44;101483.34;;;20.19;98.38
59951;BME280;45812;53.540;9.774;2023-07-13T12:29:16;101480.16;;;21.90;91.38
59951;BME280;45812;53.540;9.774;2023-07-13T12:31:44;101478.78;;;22.92;78.49
59951;BME280;45812;53.540;9.774;2023-07-13T12:34:14;101491.25;;;22.38;75.67
59951;BME280;45812;53.540;9.774;2023-07-13T12:36:45;101472.59;;;21.98;77.32
59951;BME280;45812;53.540;9.774;2023-07-13T12:39:24;101488.13;;;21.53;76.60
59951;BME280;45812;53.540;9.774;2023-07-13T12:41:52;101501.66;;;20.50;73.67
59951;BME280;45812;53.540;9.774;2023-07-13T12:44:27;101500.56;;;19.52;80.24
59951;BME280;45812;53.540;9.774;2023-07-13T12:46:56;101508.91;;;19.03;87.77
59951;BME280;45812;53.540;9.774;2023-07-13T12:49:29;101512.66;;;18.67;85.47
59951;BME280;45812;53.540;9.774;2023-07-13T12:51:56;101514.22;;;18.27;89.71
59951;BME280;45812;53.540;9.774;2023-07-13T12:54:24;101513.69;;;18.10;91.12
59951;BME280;45812;53.540;9.774;2023-07-13T12:56:50;101509.72;;;18.06;94.25
59951;BME280;45812;53.540;9.774;2023-07-13T12:59:21;101510.63;;;18.20;96.95
59951;BME280;45812;53.540;9.774;2023-07-13T13:01:47;101513.88;;;18.65;96.25
59951;BME280;45812;53.540;9.774;2023-07-13T13:04:14;101516.63;;;20.07;93.72
59951;BME280;45812;53.540;9.774;2023-07-13T13:06:40;101517.56;;;22.31;83.60
59951;BME280;45812;53.540;9.774;2023-07-13T13:09:11;101507.16;;;23.26;72.46
59951;BME280;45812;53.540;9.774;2023-07-13T13:11:38;101514.66;;;23.42;70.17
59951;BME280;45812;53.540;9.774;2023-07-13T13:14:05;101516.44;;;23.78;72.95